sensor_id;sensor_type;location;lat;lon;timestamp;P1;durP1;ratioP1;P2;durP2;ratioP2
52180;SDS011;38158;53.338;6.514;2023-02-12T00:01:45;21.60;;;8.38;;
52180;SDS011;38158;53.338;6.514;2023-02-12T00:04:11;29.45;;;9.43;;
52180;SDS011;38158;53.338;6.514;2023-02-12T00:06:37;30.38;;;9.77;;
52180;SDS011;38158;53.338;6.514;2023-02-12T00:09:03;35.83;;;9.75;;
52180;SDS011;38158;53.338;6.514;2023-02-12T00:11:29;26.42;;;8.90;;
52180;SDS011;38158;53.338;6.514;2023-02-12T00:13:55;25.30;;;9.73;;
52180;SDS011;38158;53.338;6.514;2023-02-12T00:16:23;31.58;;;9.45;;
52180;SDS011;38158;53.338;6.514;2023-02-12T00:18:51;25.02;;;9.93;;
52180;SDS011;38158;53.338;6.514;2023-02-12T00:21:18;22.77;;;9.27;;
52180;SDS011;38158;53.338;6.514;2023-02-12T00:23:44;30.02;;;8.65;;
52180;SDS011;38158;53.338;6.514;2023-02-12T00:26:11;30.90;;;9.65;;
52180;SDS011;38158;53.338;6.514;2023-02-12T00:28:38;27.13;;;9.32;;
52180;SDS011;38158;53.338;6.514;2023-02-12T00:31:08;20.95;;;8.75;;
52180;SDS011;38158;53.338;6.514;2023-02-12T00:33:38;25.45;;;9.30;;
52180;SDS011;38158;53.338;6.514;2023-02-12T00:36:04;25.45;;;9.32;;
52180;SDS011;38158;53.338;6.514;2023-02-12T00:38:30;25.35;;;9.05;;
52180;SDS011;38158;53.338;6.514;2023-02-12T00:40:56;25.52;;;9.20;;
52180;SDS011;38158;53.338;6.514;2023-02-12T00:43:22;29.05;;;9.80;;
52180;SDS011;38158;53.338;6.514;2023-02-12T00:45:47;27.08;;;8.93;;
52180;SDS011;38158;53.338;6.514;2023-02-12T00:48:13;40.88;;;10.05;;
52180;SDS011;38158;53.338;6.514;2023-02-12T00:50:39;23.98;;;8.90;;
52180;SDS011;38158;53.338;6.514;2023-02-12T00:53:05;30.83;;;9.82;;
52180;SDS011;38158;53.338;6.514;2023-02-12T00:55:32;24.63;;;9.30;;
52180;SDS011;38158;53.338;6.514;2023-02-12T00:57:58;31.65;;;10.75;;
52180;SDS011;38158;53.338;6.514;2023-02-12T01:00:24;38.55;;;10.57;;
52180;SDS011;38158;53.338;6.514;2023-02-12T01:02:49;31.55;;;9.63;;
52180;SDS011;38158;53.338;6.514;2023-02-12T01:05:15;29.10;;;9.95;;
52180;SDS011;38158;53.338;6.514;2023-02-12T01:07:41;39.05;;;11.02;;
52180;SDS011;38158;53.338;6.514;2023-02-12T01:10:07;50.90;;;12.23;;
52180;SDS011;38158;53.338;6.514;2023-02-12T01:12:34;37.10;;;11.27;;
52180;SDS011;38158;53.338;6.514;2023-02-12T01:15:00;45.85;;;12.07;;
52180;SDS011;38158;53.338;6.514;2023-02-12T01:17:25;51.17;;;12.13;;
52180;SDS011;38158;53.338;6.514;2023-02-12T01:19:55;46.15;;;12.95;;
52180;SDS011;38158;53.338;6.514;2023-02-12T01:22:22;52.67;;;12.60;;
52180;SDS011;38158;53.338;6.514;2023-02-12T01:24:48;44.90;;;12.55;;
52180;SDS011;38158;53.338;6.514;2023-02-12T01:27:14;56.55;;;13.02;;
52180;SDS011;38158;53.338;6.514;2023-02-12T01:29:39;58.50;;;13.85;;
52180;SDS011;38158;53.338;6.514;2023-02-12T01:32:09;47.65;;;13.55;;
52180;SDS011;38158;53.338;6.514;2023-02-12T01:34:35;48.88;;;12.15;;
52180;SDS011;38158;53.338;6.514;2023-02-12T01:37:01;51.25;;;13.43;;
52180;SDS011;38158;53.338;6.514;2023-02-12T01:39:27;55.55;;;14.13;;
52180;SDS011;38158;53.338;6.514;2023-02-12T01:41:52;62.45;;;13.73;;
52180;SDS011;38158;53.338;6.514;2023-02-12T01:44:19;46.85;;;13.82;;
52180;SDS011;38158;53.338;6.514;2023-02-12T01:46:48;50.97;;;13.50;;
52180;SDS011;38158;53.338;6.514;2023-02-12T01:51:47;46.80;;;14.30;;
52180;SDS011;38158;53.338;6.514;2023-02-12T01:54:48;60.90;;;14.65;;
52180;SDS011;38158;53.338;6.514;2023-02-12T01:57:15;49.65;;;14.30;;
52180;SDS011;38158;53.338;6.514;2023-02-12T01:59:42;60.65;;;14.77;;
52180;SDS011;38158;53.338;6.514;2023-02-12T02:02:09;44.58;;;13.52;;
52180;SDS011;38158;53.338;6.514;2023-02-12T02:04:36;66.57;;;15.32;;
52180;SDS011;38158;53.338;6.514;2023-02-12T02:07:16;34.97;;;12.75;;
52180;SDS011;38158;53.338;6.514;2023-02-12T02:09:41;39.60;;;14.32;;
52180;SDS011;38158;53.338;6.514;2023-02-12T02:12:08;47.05;;;13.30;;
52180;SDS011;38158;53.338;6.514;2023-02-12T02:14:53;39.33;;;14.07;;
52180;SDS011;38158;53.338;6.514;2023-02-12T02:34:30;39.35;;;14.57;;
52180;SDS011;38158;53.338;6.514;2023-02-12T02:37:13;66.68;;;15.30;;
52180;SDS011;38158;53.338;6.514;2023-02-12T02:39:46;48.63;;;15.20;;
52180;SDS011;38158;53.338;6.514;2023-02-12T02:42:26;48.20;;;15.07;;
52180;SDS011;38158;53.338;6.514;2023-02-12T02:45:15;44.13;;;14.65;;
52180;SDS011;38158;53.338;6.514;2023-02-12T02:50:22;66.70;;;16.60;;
52180;SDS011;38158;53.338;6.514;2023-02-12T02:53:01;56.17;;;15.90;;
52180;SDS011;38158;53.338;6.514;2023-02-12T02:55:36;46.15;;;14.85;;
52180;SDS011;38158;53.338;6.514;2023-02-12T02:58:13;91.10;;;18.13;;
52180;SDS011;38158;53.338;6.514;2023-02-12T03:00:44;72.55;;;18.05;;
52180;SDS011;38158;53.338;6.514;2023-02-12T03:03:41;96.65;;;17.88;;
52180;SDS011;38158;53.338;6.514;2023-02-12T03:06:36;67.88;;;17.70;;
52180;SDS011;38158;53.338;6.514;2023-02-12T03:09:17;57.95;;;16.02;;
52180;SDS011;38158;53.338;6.514;2023-02-12T03:11:57;165.18;;;20.50;;
52180;SDS011;38158;53.338;6.514;2023-02-12T03:14:31;99.88;;;18.65;;
52180;SDS011;38158;53.338;6.514;2023-02-12T03:17:20;102.88;;;18.55;;
52180;SDS011;38158;53.338;6.514;2023-02-12T03:20:00;45.73;;;17.63;;
52180;SDS011;38158;53.338;6.514;2023-02-12T03:30:43;71.78;;;17.42;;
52180;SDS011;38158;53.338;6.514;2023-02-12T03:36:00;71.10;;;18.10;;
52180;SDS011;38158;53.338;6.514;2023-02-12T03:38:45;93.40;;;18.00;;
52180;SDS011;38158;53.338;6.514;2023-02-12T03:46:57;36.83;;;14.55;;
52180;SDS011;38158;53.338;6.514;2023-02-12T03:49:37;39.17;;;13.55;;
52180;SDS011;38158;53.338;6.514;2023-02-12T03:52:13;57.92;;;12.30;;
52180;SDS011;38158;53.338;6.514;2023-02-12T03:54:38;87.22;;;12.20;;
52180;SDS011;38158;53.338;6.514;2023-02-12T03:59:37;32.67;;;11.18;;
52180;SDS011;38158;53.338;6.514;2023-02-12T04:02:03;70.88;;;12.60;;
52180;SDS011;38158;53.338;6.514;2023-02-12T04:04:29;36.95;;;9.73;;
52180;SDS011;38158;53.338;6.514;2023-02-12T04:06:56;24.73;;;10.00;;
52180;SDS011;38158;53.338;6.514;2023-02-12T04:09:22;52.65;;;10.00;;
52180;SDS011;38158;53.338;6.514;2023-02-12T04:22:53;20.60;;;6.40;;
52180;SDS011;38158;53.338;6.514;2023-02-12T04:25:20;17.13;;;6.88;;
52180;SDS011;38158;53.338;6.514;2023-02-12T04:27:54;71.75;;;8.90;;
52180;SDS011;38158;53.338;6.514;2023-02-12T04:30:42;24.50;;;6.38;;
52180;SDS011;38158;53.338;6.514;2023-02-12T04:33:21;38.75;;;7.30;;
52180;SDS011;38158;53.338;6.514;2023-02-12T04:35:55;30.15;;;6.82;;
52180;SDS011;38158;53.338;6.514;2023-02-12T04:41:24;25.63;;;7.28;;
52180;SDS011;38158;53.338;6.514;2023-02-12T04:43:50;41.40;;;7.60;;
52180;SDS011;38158;53.338;6.514;2023-02-12T04:46:16;27.55;;;7.97;;
52180;SDS011;38158;53.338;6.514;2023-02-12T04:49:03;19.27;;;6.32;;
52180;SDS011;38158;53.338;6.514;2023-02-12T04:51:27;70.43;;;8.73;;
52180;SDS011;38158;53.338;6.514;2023-02-12T04:53:53;31.40;;;7.93;;
52180;SDS011;38158;53.338;6.514;2023-02-12T04:56:19;43.45;;;7.70;;
52180;SDS011;38158;53.338;6.514;2023-02-12T04:58:44;28.67;;;7.55;;
52180;SDS011;38158;53.338;6.514;2023-02-12T05:01:10;18.23;;;7.72;;
52180;SDS011;38158;53.338;6.514;2023-02-12T05:03:36;64.28;;;9.73;;
52180;SDS011;38158;53.338;6.514;2023-02-12T05:06:03;32.67;;;8.02;;
52180;SDS011;38158;53.338;6.514;2023-02-12T05:08:30;39.90;;;8.40;;
52180;SDS011;38158;53.338;6.514;2023-02-12T05:10:56;34.70;;;8.25;;
52180;SDS011;38158;53.338;6.514;2023-02-12T05:13:21;42.72;;;8.50;;
52180;SDS011;38158;53.338;6.514;2023-02-12T05:15:47;27.48;;;10.18;;
52180;SDS011;38158;53.338;6.514;2023-02-12T05:18:13;28.75;;;8.52;;
52180;SDS011;38158;53.338;6.514;2023-02-12T05:20:38;43.65;;;9.13;;
52180;SDS011;38158;53.338;6.514;2023-02-12T05:23:04;43.92;;;9.00;;
52180;SDS011;38158;53.338;6.514;2023-02-12T05:25:29;29.65;;;8.18;;
52180;SDS011;38158;53.338;6.514;2023-02-12T05:27:56;23.38;;;7.68;;
52180;SDS011;38158;53.338;6.514;2023-02-12T05:30:22;34.83;;;8.05;;
52180;SDS011;38158;53.338;6.514;2023-02-12T05:32:47;47.63;;;9.13;;
52180;SDS011;38158;53.338;6.514;2023-02-12T05:35:13;76.00;;;9.95;;
52180;SDS011;38158;53.338;6.514;2023-02-12T05:37:39;77.22;;;8.13;;
52180;SDS011;38158;53.338;6.514;2023-02-12T05:40:05;14.60;;;6.47;;
52180;SDS011;38158;53.338;6.514;2023-02-12T05:42:32;25.27;;;7.63;;
52180;SDS011;38158;53.338;6.514;2023-02-12T05:44:58;21.50;;;5.72;;
52180;SDS011;38158;53.338;6.514;2023-02-12T05:47:24;20.60;;;5.03;;
52180;SDS011;38158;53.338;6.514;2023-02-12T05:49:50;26.98;;;5.88;;
52180;SDS011;38158;53.338;6.514;2023-02-12T05:52:16;34.00;;;6.47;;
52180;SDS011;38158;53.338;6.514;2023-02-12T05:54:41;28.20;;;4.43;;
52180;SDS011;38158;53.338;6.514;2023-02-12T05:57:07;25.73;;;4.00;;
52180;SDS011;38158;53.338;6.514;2023-02-12T05:59:33;24.88;;;3.75;;
52180;SDS011;38158;53.338;6.514;2023-02-12T06:01:58;7.97;;;3.25;;
52180;SDS011;38158;53.338;6.514;2023-02-12T06:04:25;24.30;;;3.70;;
52180;SDS011;38158;53.338;6.514;2023-02-12T06:06:52;13.88;;;3.92;;
52180;SDS011;38158;53.338;6.514;2023-02-12T06:09:19;17.08;;;3.90;;
52180;SDS011;38158;53.338;6.514;2023-02-12T06:11:46;17.15;;;4.28;;
52180;SDS011;38158;53.338;6.514;2023-02-12T06:14:14;28.83;;;5.30;;
52180;SDS011;38158;53.338;6.514;2023-02-12T06:16:45;16.33;;;5.20;;
52180;SDS011;38158;53.338;6.514;2023-02-12T06:19:12;41.47;;;5.95;;
52180;SDS011;38158;53.338;6.514;2023-02-12T06:21:38;21.52;;;5.28;;
52180;SDS011;38158;53.338;6.514;2023-02-12T06:24:04;80.82;;;7.32;;
52180;SDS011;38158;53.338;6.514;2023-02-12T06:26:29;37.55;;;7.63;;
52180;SDS011;38158;53.338;6.514;2023-02-12T06:28:55;56.67;;;8.48;;
52180;SDS011;38158;53.338;6.514;2023-02-12T06:31:25;42.22;;;7.07;;
52180;SDS011;38158;53.338;6.514;2023-02-12T06:33:53;19.02;;;5.38;;
52180;SDS011;38158;53.338;6.514;2023-02-12T06:36:22;17.38;;;6.00;;
52180;SDS011;38158;53.338;6.514;2023-02-12T06:38:48;32.20;;;6.28;;
52180;SDS011;38158;53.338;6.514;2023-02-12T06:41:14;15.02;;;5.43;;
52180;SDS011;38158;53.338;6.514;2023-02-12T06:43:40;17.42;;;5.47;;
52180;SDS011;38158;53.338;6.514;2023-02-12T06:46:06;32.90;;;7.18;;
52180;SDS011;38158;53.338;6.514;2023-02-12T06:48:32;58.58;;;7.07;;
52180;SDS011;38158;53.338;6.514;2023-02-12T06:51:12;15.82;;;6.53;;
52180;SDS011;38158;53.338;6.514;2023-02-12T06:53:42;50.00;;;7.43;;
52180;SDS011;38158;53.338;6.514;2023-02-12T06:56:09;39.10;;;7.57;;
52180;SDS011;38158;53.338;6.514;2023-02-12T06:58:41;43.25;;;8.07;;
52180;SDS011;38158;53.338;6.514;2023-02-12T07:03:42;28.17;;;8.00;;
52180;SDS011;38158;53.338;6.514;2023-02-12T07:06:12;84.57;;;9.65;;
52180;SDS011;38158;53.338;6.514;2023-02-12T07:08:38;69.80;;;10.98;;
52180;SDS011;38158;53.338;6.514;2023-02-12T07:13:31;64.22;;;9.55;;
52180;SDS011;38158;53.338;6.514;2023-02-12T07:18:30;18.00;;;7.63;;
52180;SDS011;38158;53.338;6.514;2023-02-12T07:20:57;17.85;;;7.78;;
52180;SDS011;38158;53.338;6.514;2023-02-12T07:23:23;16.02;;;7.00;;
52180;SDS011;38158;53.338;6.514;2023-02-12T07:25:58;14.38;;;6.70;;
52180;SDS011;38158;53.338;6.514;2023-02-12T07:28:34;16.35;;;7.30;;
52180;SDS011;38158;53.338;6.514;2023-02-12T07:33:48;23.92;;;8.27;;
52180;SDS011;38158;53.338;6.514;2023-02-12T07:36:18;22.67;;;8.63;;
52180;SDS011;38158;53.338;6.514;2023-02-12T07:38:44;21.00;;;8.85;;
52180;SDS011;38158;53.338;6.514;2023-02-12T07:41:13;23.67;;;10.77;;
52180;SDS011;38158;53.338;6.514;2023-02-12T07:43:44;25.92;;;9.85;;
52180;SDS011;38158;53.338;6.514;2023-02-12T07:48:38;34.90;;;12.18;;
52180;SDS011;38158;53.338;6.514;2023-02-12T07:51:04;82.97;;;13.23;;
52180;SDS011;38158;53.338;6.514;2023-02-12T07:53:34;64.15;;;12.02;;
52180;SDS011;38158;53.338;6.514;2023-02-12T07:56:11;41.90;;;12.50;;
52180;SDS011;38158;53.338;6.514;2023-02-12T07:58:42;42.42;;;12.40;;
52180;SDS011;38158;53.338;6.514;2023-02-12T08:01:19;30.95;;;12.73;;
52180;SDS011;38158;53.338;6.514;2023-02-12T08:03:46;36.35;;;13.30;;
52180;SDS011;38158;53.338;6.514;2023-02-12T08:06:15;34.70;;;13.48;;
52180;SDS011;38158;53.338;6.514;2023-02-12T08:08:43;31.70;;;13.88;;
52180;SDS011;38158;53.338;6.514;2023-02-12T08:11:10;35.47;;;13.95;;
52180;SDS011;38158;53.338;6.514;2023-02-12T08:13:36;31.92;;;13.45;;
52180;SDS011;38158;53.338;6.514;2023-02-12T08:16:03;30.25;;;13.43;;
52180;SDS011;38158;53.338;6.514;2023-02-12T08:18:32;35.95;;;12.25;;
52180;SDS011;38158;53.338;6.514;2023-02-12T08:21:05;32.97;;;14.35;;
52180;SDS011;38158;53.338;6.514;2023-02-12T08:23:36;36.83;;;15.68;;
52180;SDS011;38158;53.338;6.514;2023-02-12T08:26:10;35.28;;;13.32;;
52180;SDS011;38158;53.338;6.514;2023-02-12T08:28:38;35.25;;;13.00;;
52180;SDS011;38158;53.338;6.514;2023-02-12T08:31:08;30.27;;;12.82;;
52180;SDS011;38158;53.338;6.514;2023-02-12T08:33:36;35.10;;;13.57;;
52180;SDS011;38158;53.338;6.514;2023-02-12T08:38:30;34.20;;;13.98;;
52180;SDS011;38158;53.338;6.514;2023-02-12T08:40:59;36.03;;;13.02;;
52180;SDS011;38158;53.338;6.514;2023-02-12T08:43:26;37.13;;;15.32;;
52180;SDS011;38158;53.338;6.514;2023-02-12T08:45:52;45.65;;;14.77;;
52180;SDS011;38158;53.338;6.514;2023-02-12T08:48:19;49.75;;;14.52;;
52180;SDS011;38158;53.338;6.514;2023-02-12T08:50:45;39.45;;;15.05;;
52180;SDS011;38158;53.338;6.514;2023-02-12T08:53:11;41.33;;;14.95;;
52180;SDS011;38158;53.338;6.514;2023-02-12T08:55:37;43.55;;;14.85;;
52180;SDS011;38158;53.338;6.514;2023-02-12T08:58:02;40.67;;;14.55;;
52180;SDS011;38158;53.338;6.514;2023-02-12T09:00:28;45.60;;;14.57;;
52180;SDS011;38158;53.338;6.514;2023-02-12T09:02:54;42.67;;;14.52;;
52180;SDS011;38158;53.338;6.514;2023-02-12T09:05:19;39.95;;;14.77;;
52180;SDS011;38158;53.338;6.514;2023-02-12T09:07:45;41.50;;;15.10;;
52180;SDS011;38158;53.338;6.514;2023-02-12T09:10:11;40.67;;;15.63;;
52180;SDS011;38158;53.338;6.514;2023-02-12T09:12:38;48.60;;;17.92;;
52180;SDS011;38158;53.338;6.514;2023-02-12T09:15:03;45.70;;;16.58;;
52180;SDS011;38158;53.338;6.514;2023-02-12T09:17:29;43.35;;;17.35;;
52180;SDS011;38158;53.338;6.514;2023-02-12T09:19:55;42.00;;;15.57;;
52180;SDS011;38158;53.338;6.514;2023-02-12T09:22:21;46.58;;;17.13;;
52180;SDS011;38158;53.338;6.514;2023-02-12T09:24:47;43.88;;;18.48;;
52180;SDS011;38158;53.338;6.514;2023-02-12T09:27:12;48.97;;;19.50;;
52180;SDS011;38158;53.338;6.514;2023-02-12T09:29:38;42.95;;;17.33;;
52180;SDS011;38158;53.338;6.514;2023-02-12T09:32:04;35.38;;;15.07;;
52180;SDS011;38158;53.338;6.514;2023-02-12T09:34:33;42.67;;;17.83;;
52180;SDS011;38158;53.338;6.514;2023-02-12T09:36:59;43.13;;;18.73;;
52180;SDS011;38158;53.338;6.514;2023-02-12T09:39:25;48.58;;;20.50;;
52180;SDS011;38158;53.338;6.514;2023-02-12T09:44:47;36.35;;;16.08;;
52180;SDS011;38158;53.338;6.514;2023-02-12T09:51:04;40.88;;;17.42;;
52180;SDS011;38158;53.338;6.514;2023-02-12T09:53:34;38.80;;;17.13;;
52180;SDS011;38158;53.338;6.514;2023-02-12T09:56:07;37.90;;;16.23;;
52180;SDS011;38158;53.338;6.514;2023-02-12T09:58:53;43.13;;;17.83;;
52180;SDS011;38158;53.338;6.514;2023-02-12T10:01:25;38.33;;;16.75;;
52180;SDS011;38158;53.338;6.514;2023-02-12T10:03:51;40.60;;;18.02;;
52180;SDS011;38158;53.338;6.514;2023-02-12T10:06:28;39.37;;;16.33;;
52180;SDS011;38158;53.338;6.514;2023-02-12T10:09:11;43.45;;;17.73;;
52180;SDS011;38158;53.338;6.514;2023-02-12T10:19:28;33.28;;;15.68;;
52180;SDS011;38158;53.338;6.514;2023-02-12T10:27:44;33.45;;;15.35;;
52180;SDS011;38158;53.338;6.514;2023-02-12T10:33:05;38.77;;;16.20;;
52180;SDS011;38158;53.338;6.514;2023-02-12T10:35:37;45.60;;;16.65;;
52180;SDS011;38158;53.338;6.514;2023-02-12T10:41:09;33.58;;;15.13;;
52180;SDS011;38158;53.338;6.514;2023-02-12T10:43:39;44.08;;;17.42;;
52180;SDS011;38158;53.338;6.514;2023-02-12T10:46:05;36.25;;;15.57;;
52180;SDS011;38158;53.338;6.514;2023-02-12T10:48:37;39.17;;;16.35;;
52180;SDS011;38158;53.338;6.514;2023-02-12T10:53:40;39.50;;;17.45;;
52180;SDS011;38158;53.338;6.514;2023-02-12T10:58:55;35.63;;;16.77;;
52180;SDS011;38158;53.338;6.514;2023-02-12T11:01:25;31.85;;;15.57;;
52180;SDS011;38158;53.338;6.514;2023-02-12T11:03:51;38.55;;;16.98;;
52180;SDS011;38158;53.338;6.514;2023-02-12T11:06:29;33.13;;;15.48;;
52180;SDS011;38158;53.338;6.514;2023-02-12T11:08:56;36.15;;;16.92;;
52180;SDS011;38158;53.338;6.514;2023-02-12T11:14:04;28.63;;;14.27;;
52180;SDS011;38158;53.338;6.514;2023-02-12T11:16:52;27.77;;;13.32;;
52180;SDS011;38158;53.338;6.514;2023-02-12T11:19:23;33.42;;;15.63;;
52180;SDS011;38158;53.338;6.514;2023-02-12T11:21:51;26.77;;;13.88;;
52180;SDS011;38158;53.338;6.514;2023-02-12T11:24:29;30.10;;;14.55;;
52180;SDS011;38158;53.338;6.514;2023-02-12T11:30:10;31.83;;;15.07;;
52180;SDS011;38158;53.338;6.514;2023-02-12T11:32:43;33.92;;;15.55;;
52180;SDS011;38158;53.338;6.514;2023-02-12T11:37:50;28.55;;;13.20;;
52180;SDS011;38158;53.338;6.514;2023-02-12T11:40:22;26.67;;;11.93;;
52180;SDS011;38158;53.338;6.514;2023-02-12T11:42:58;33.45;;;12.60;;
52180;SDS011;38158;53.338;6.514;2023-02-12T11:45:32;22.17;;;11.75;;
52180;SDS011;38158;53.338;6.514;2023-02-12T11:51:02;19.15;;;10.32;;
52180;SDS011;38158;53.338;6.514;2023-02-12T11:53:31;20.77;;;9.27;;
52180;SDS011;38158;53.338;6.514;2023-02-12T11:56:01;18.98;;;10.30;;
52180;SDS011;38158;53.338;6.514;2023-02-12T11:58:29;18.08;;;9.48;;
52180;SDS011;38158;53.338;6.514;2023-02-12T12:00:58;18.15;;;8.98;;
52180;SDS011;38158;53.338;6.514;2023-02-12T12:09:00;21.02;;;10.98;;
52180;SDS011;38158;53.338;6.514;2023-02-12T12:14:15;22.30;;;11.52;;
52180;SDS011;38158;53.338;6.514;2023-02-12T12:16:56;22.38;;;11.88;;
52180;SDS011;38158;53.338;6.514;2023-02-12T12:19:54;20.02;;;10.90;;
52180;SDS011;38158;53.338;6.514;2023-02-12T12:30:32;23.52;;;10.88;;
52180;SDS011;38158;53.338;6.514;2023-02-12T12:33:02;22.25;;;11.25;;
52180;SDS011;38158;53.338;6.514;2023-02-12T12:35:36;21.55;;;11.70;;
52180;SDS011;38158;53.338;6.514;2023-02-12T12:41:28;22.50;;;10.85;;
52180;SDS011;38158;53.338;6.514;2023-02-12T12:52:22;21.27;;;10.20;;
52180;SDS011;38158;53.338;6.514;2023-02-12T13:00:23;15.38;;;7.32;;
52180;SDS011;38158;53.338;6.514;2023-02-12T13:03:03;16.90;;;8.02;;
52180;SDS011;38158;53.338;6.514;2023-02-12T13:06:02;37.20;;;10.32;;
52180;SDS011;38158;53.338;6.514;2023-02-12T13:08:48;20.27;;;9.10;;
52180;SDS011;38158;53.338;6.514;2023-02-12T13:14:24;17.02;;;8.65;;
52180;SDS011;38158;53.338;6.514;2023-02-12T13:17:22;14.43;;;7.60;;
52180;SDS011;38158;53.338;6.514;2023-02-12T13:22:57;10.15;;;4.47;;
52180;SDS011;38158;53.338;6.514;2023-02-12T13:28:04;10.50;;;3.47;;
52180;SDS011;38158;53.338;6.514;2023-02-12T13:30:39;5.32;;;2.95;;
52180;SDS011;38158;53.338;6.514;2023-02-12T13:33:10;7.95;;;3.92;;
52180;SDS011;38158;53.338;6.514;2023-02-12T13:35:48;9.07;;;5.22;;
52180;SDS011;38158;53.338;6.514;2023-02-12T13:38:19;11.27;;;6.22;;
52180;SDS011;38158;53.338;6.514;2023-02-12T13:40:49;10.80;;;5.32;;
52180;SDS011;38158;53.338;6.514;2023-02-12T13:45:49;12.57;;;6.30;;
52180;SDS011;38158;53.338;6.514;2023-02-12T13:48:39;9.13;;;4.75;;
52180;SDS011;38158;53.338;6.514;2023-02-12T13:53:55;7.65;;;4.05;;
52180;SDS011;38158;53.338;6.514;2023-02-12T14:01:54;8.48;;;4.03;;
52180;SDS011;38158;53.338;6.514;2023-02-12T14:09:19;11.80;;;4.30;;
52180;SDS011;38158;53.338;6.514;2023-02-12T14:11:51;7.75;;;4.10;;
52180;SDS011;38158;53.338;6.514;2023-02-12T14:14:25;9.95;;;4.22;;
52180;SDS011;38158;53.338;6.514;2023-02-12T14:16:56;9.15;;;5.30;;
52180;SDS011;38158;53.338;6.514;2023-02-12T14:24:52;12.90;;;8.05;;
52180;SDS011;38158;53.338;6.514;2023-02-12T14:27:33;16.98;;;9.30;;
52180;SDS011;38158;53.338;6.514;2023-02-12T14:35:34;15.55;;;10.00;;
52180;SDS011;38158;53.338;6.514;2023-02-12T14:38:03;17.63;;;10.60;;
52180;SDS011;38158;53.338;6.514;2023-02-12T14:40:58;23.02;;;12.30;;
52180;SDS011;38158;53.338;6.514;2023-02-12T14:54:31;19.70;;;11.52;;
52180;SDS011;38158;53.338;6.514;2023-02-12T14:57:05;20.30;;;12.65;;
52180;SDS011;38158;53.338;6.514;2023-02-12T14:59:39;20.30;;;12.60;;
52180;SDS011;38158;53.338;6.514;2023-02-12T15:02:12;21.65;;;11.85;;
52180;SDS011;38158;53.338;6.514;2023-02-12T15:04:47;19.63;;;12.20;;
52180;SDS011;38158;53.338;6.514;2023-02-12T15:07:16;21.90;;;12.70;;
52180;SDS011;38158;53.338;6.514;2023-02-12T15:09:50;22.02;;;12.40;;
52180;SDS011;38158;53.338;6.514;2023-02-12T15:12:21;22.90;;;13.43;;
52180;SDS011;38158;53.338;6.514;2023-02-12T15:15:00;19.98;;;12.77;;
52180;SDS011;38158;53.338;6.514;2023-02-12T15:18:21;24.63;;;12.60;;
52180;SDS011;38158;53.338;6.514;2023-02-12T15:20:58;21.92;;;13.23;;
52180;SDS011;38158;53.338;6.514;2023-02-12T15:23:41;24.20;;;13.50;;
52180;SDS011;38158;53.338;6.514;2023-02-12T15:26:17;21.90;;;13.45;;
52180;SDS011;38158;53.338;6.514;2023-02-12T15:28:47;21.80;;;13.43;;
52180;SDS011;38158;53.338;6.514;2023-02-12T15:31:15;24.55;;;14.77;;
52180;SDS011;38158;53.338;6.514;2023-02-12T15:33:45;25.30;;;13.35;;
52180;SDS011;38158;53.338;6.514;2023-02-12T15:36:22;22.17;;;13.23;;
52180;SDS011;38158;53.338;6.514;2023-02-12T15:38:52;29.90;;;15.85;;
52180;SDS011;38158;53.338;6.514;2023-02-12T15:41:25;26.20;;;17.00;;
52180;SDS011;38158;53.338;6.514;2023-02-12T15:43:58;25.58;;;13.55;;
52180;SDS011;38158;53.338;6.514;2023-02-12T15:46:26;24.85;;;13.93;;
52180;SDS011;38158;53.338;6.514;2023-02-12T15:48:52;25.52;;;13.90;;
52180;SDS011;38158;53.338;6.514;2023-02-12T15:53:54;23.67;;;14.75;;
52180;SDS011;38158;53.338;6.514;2023-02-12T15:56:23;22.85;;;14.50;;
52180;SDS011;38158;53.338;6.514;2023-02-12T16:01:23;24.70;;;13.32;;
52180;SDS011;38158;53.338;6.514;2023-02-12T16:04:04;21.27;;;12.30;;
52180;SDS011;38158;53.338;6.514;2023-02-12T16:06:31;21.73;;;13.27;;
52180;SDS011;38158;53.338;6.514;2023-02-12T16:11:30;23.25;;;13.32;;
52180;SDS011;38158;53.338;6.514;2023-02-12T16:14:01;23.55;;;14.70;;
52180;SDS011;38158;53.338;6.514;2023-02-12T16:16:43;21.17;;;12.60;;
52180;SDS011;38158;53.338;6.514;2023-02-12T16:24:33;21.90;;;12.80;;
52180;SDS011;38158;53.338;6.514;2023-02-12T16:27:08;22.92;;;13.85;;
52180;SDS011;38158;53.338;6.514;2023-02-12T16:29:52;22.00;;;13.68;;
52180;SDS011;38158;53.338;6.514;2023-02-12T16:50:33;20.25;;;13.80;;
52180;SDS011;38158;53.338;6.514;2023-02-12T16:53:05;24.58;;;13.88;;
52180;SDS011;38158;53.338;6.514;2023-02-12T16:55:46;20.42;;;13.63;;
52180;SDS011;38158;53.338;6.514;2023-02-12T16:58:12;20.65;;;13.75;;
52180;SDS011;38158;53.338;6.514;2023-02-12T17:00:38;21.42;;;14.48;;
52180;SDS011;38158;53.338;6.514;2023-02-12T17:03:03;22.00;;;14.77;;
52180;SDS011;38158;53.338;6.514;2023-02-12T17:05:29;27.83;;;16.88;;
52180;SDS011;38158;53.338;6.514;2023-02-12T17:07:55;21.17;;;13.43;;
52180;SDS011;38158;53.338;6.514;2023-02-12T17:10:20;23.45;;;14.23;;
52180;SDS011;38158;53.338;6.514;2023-02-12T17:12:47;22.63;;;13.80;;
52180;SDS011;38158;53.338;6.514;2023-02-12T17:15:22;20.73;;;13.20;;
52180;SDS011;38158;53.338;6.514;2023-02-12T17:17:52;23.00;;;13.30;;
52180;SDS011;38158;53.338;6.514;2023-02-12T17:20:18;22.35;;;13.15;;
52180;SDS011;38158;53.338;6.514;2023-02-12T17:22:45;22.60;;;13.73;;
52180;SDS011;38158;53.338;6.514;2023-02-12T17:25:14;22.52;;;13.95;;
52180;SDS011;38158;53.338;6.514;2023-02-12T17:27:40;25.55;;;14.75;;
52180;SDS011;38158;53.338;6.514;2023-02-12T17:30:07;21.02;;;13.70;;
52180;SDS011;38158;53.338;6.514;2023-02-12T17:32:34;24.48;;;13.57;;
52180;SDS011;38158;53.338;6.514;2023-02-12T17:35:00;24.70;;;14.23;;
52180;SDS011;38158;53.338;6.514;2023-02-12T17:37:25;22.88;;;14.68;;
52180;SDS011;38158;53.338;6.514;2023-02-12T17:39:51;25.02;;;13.80;;
52180;SDS011;38158;53.338;6.514;2023-02-12T17:42:17;22.63;;;15.38;;
52180;SDS011;38158;53.338;6.514;2023-02-12T17:44:43;23.88;;;15.43;;
52180;SDS011;38158;53.338;6.514;2023-02-12T17:47:08;24.63;;;16.17;;
52180;SDS011;38158;53.338;6.514;2023-02-12T17:49:34;26.35;;;15.77;;
52180;SDS011;38158;53.338;6.514;2023-02-12T17:52:00;26.75;;;17.33;;
52180;SDS011;38158;53.338;6.514;2023-02-12T17:54:26;26.98;;;16.35;;
52180;SDS011;38158;53.338;6.514;2023-02-12T17:56:52;20.27;;;14.32;;
52180;SDS011;38158;53.338;6.514;2023-02-12T17:59:18;22.70;;;14.80;;
52180;SDS011;38158;53.338;6.514;2023-02-12T18:01:43;21.35;;;14.20;;
52180;SDS011;38158;53.338;6.514;2023-02-12T18:04:09;25.92;;;15.95;;
52180;SDS011;38158;53.338;6.514;2023-02-12T18:06:35;23.17;;;15.45;;
52180;SDS011;38158;53.338;6.514;2023-02-12T18:09:01;24.33;;;15.40;;
52180;SDS011;38158;53.338;6.514;2023-02-12T18:11:27;24.35;;;15.73;;
52180;SDS011;38158;53.338;6.514;2023-02-12T18:13:54;24.55;;;16.35;;
52180;SDS011;38158;53.338;6.514;2023-02-12T18:18:47;24.85;;;16.67;;
52180;SDS011;38158;53.338;6.514;2023-02-12T18:21:14;26.63;;;16.85;;
52180;SDS011;38158;53.338;6.514;2023-02-12T18:23:40;25.55;;;15.27;;
52180;SDS011;38158;53.338;6.514;2023-02-12T18:26:07;28.92;;;16.33;;
52180;SDS011;38158;53.338;6.514;2023-02-12T18:28:35;26.90;;;15.95;;
52180;SDS011;38158;53.338;6.514;2023-02-12T18:31:01;28.77;;;17.42;;